sensor_id;sensor_type;location;lat;lon;timestamp;pressure;altitude;pressure_sealevel;temperature;humidity
49835;BME280;35729;52.090;13.162;2023-05-21T00:01:39;101366.44;;;15.25;72.47
49835;BME280;35729;52.090;13.162;2023-05-21T00:04:07;101363.03;;;15.22;72.60
49835;BME280;35729;52.090;13.162;2023-05-21T00:06:37;101371.03;;;15.19;72.62
49835;BME280;35729;52.090;13.162;2023-05-21T00:09:06;101364.94;;;15.17;72.59
49835;BME280;35729;52.090;13.162;2023-05-21T00:11:39;101360.69;;;15.11;72.73
49835;BME280;35729;52.090;13.162;2023-05-21T00:14:08;101357.28;;;15.07;72.93
49835;BME280;35729;52.090;13.162;2023-05-21T00:16:36;101355.66;;;15.03;72.99
49835;BME280;35729;52.090;13.162;2023-05-21T00:19:05;101352.28;;;14.98;73.13
49835;BME280;35729;52.090;13.162;2023-05-21T00:21:34;101352.34;;;14.95;73.50
49835;BME280;35729;52.090;13.162;2023-05-21T00:24:04;101356.00;;;14.91;73.67
49835;BME280;35729;52.090;13.162;2023-05-21T00:26:33;101355.28;;;14.86;73.91
49835;BME280;35729;52.090;13.162;2023-05-21T00:29:04;101352.75;;;14.82;74.07
49835;BME280;35729;52.090;13.162;2023-05-21T00:31:32;101350.28;;;14.76;74.23
49835;BME280;35729;52.090;13.162;2023-05-21T00:34:01;101353.06;;;14.72;74.62
49835;BME280;35729;52.090;13.162;2023-05-21T00:36:29;101346.16;;;14.68;74.74
49835;BME280;35729;52.090;13.162;2023-05-21T00:38:59;101340.06;;;14.64;74.58
49835;BME280;35729;52.090;13.162;2023-05-21T00:41:27;101341.91;;;14.60;75.00
49835;BME280;35729;52.090;13.162;2023-05-21T00:43:56;101342.91;;;14.56;75.27
49835;BME280;35729;52.090;13.162;2023-05-21T00:46:27;101349.19;;;14.52;75.42
49835;BME280;35729;52.090;13.162;2023-05-21T00:48:56;101341.34;;;14.49;75.58
49835;BME280;35729;52.090;13.162;2023-05-21T00:51:25;101342.31;;;14.46;75.85
49835;BME280;35729;52.090;13.162;2023-05-21T00:53:55;101344.13;;;14.44;75.98
49835;BME280;35729;52.090;13.162;2023-05-21T00:56:24;101336.25;;;14.43;76.14
49835;BME280;35729;52.090;13.162;2023-05-21T00:58:54;101337.16;;;14.42;76.34
49835;BME280;35729;52.090;13.162;2023-05-21T01:01:26;101338.09;;;14.39;76.48
49835;BME280;35729;52.090;13.162;2023-05-21T01:04:00;101323.28;;;14.35;76.52
49835;BME280;35729;52.090;13.162;2023-05-21T01:06:28;101327.72;;;14.33;76.83
49835;BME280;35729;52.090;13.162;2023-05-21T01:09:00;101328.66;;;14.30;76.85
49835;BME280;35729;52.090;13.162;2023-05-21T01:11:36;101326.13;;;14.27;77.15
49835;BME280;35729;52.090;13.162;2023-05-21T01:14:06;101319.16;;;14.25;77.04
49835;BME280;35729;52.090;13.162;2023-05-21T01:16:41;101319.22;;;14.23;77.38
49835;BME280;35729;52.090;13.162;2023-05-21T01:19:15;101320.19;;;14.19;77.58
49835;BME280;35729;52.090;13.162;2023-05-21T01:21:45;101313.31;;;14.13;77.62
49835;BME280;35729;52.090;13.162;2023-05-21T01:24:17;101311.56;;;14.12;77.81
49835;BME280;35729;52.090;13.162;2023-05-21T01:26:46;101311.69;;;14.09;78.06
49835;BME280;35729;52.090;13.162;2023-05-21T01:29:14;101304.72;;;14.05;77.87
49835;BME280;35729;52.090;13.162;2023-05-21T01:31:57;101313.56;;;14.04;78.33
49835;BME280;35729;52.090;13.162;2023-05-21T01:34:31;101316.28;;;14.01;78.32
49835;BME280;35729;52.090;13.162;2023-05-21T01:37:09;101314.53;;;14.00;78.50
49835;BME280;35729;52.090;13.162;2023-05-21T01:39:44;101311.16;;;13.96;78.52
49835;BME280;35729;52.090;13.162;2023-05-21T01:42:15;101308.56;;;13.93;78.63
49835;BME280;35729;52.090;13.162;2023-05-21T01:44:45;101310.38;;;13.93;78.78
49835;BME280;35729;52.090;13.162;2023-05-21T01:47:15;101303.41;;;13.89;78.90
49835;BME280;35729;52.090;13.162;2023-05-21T01:49:45;101301.72;;;13.86;79.05
49835;BME280;35729;52.090;13.162;2023-05-21T01:52:13;101297.44;;;13.82;79.01
49835;BME280;35729;52.090;13.162;2023-05-21T01:54:45;101299.28;;;13.78;79.46
49835;BME280;35729;52.090;13.162;2023-05-21T01:57:14;101296.75;;;13.75;79.63
49835;BME280;35729;52.090;13.162;2023-05-21T01:59:43;101293.31;;;13.72;79.75
49835;BME280;35729;52.090;13.162;2023-05-21T02:02:12;101293.38;;;13.70;79.79
49835;BME280;35729;52.090;13.162;2023-05-21T02:04:41;101289.94;;;13.66;80.00
49835;BME280;35729;52.090;13.162;2023-05-21T02:07:10;101290.88;;;13.64;80.07
49835;BME280;35729;52.090;13.162;2023-05-21T02:09:39;101288.31;;;13.61;80.30
49835;BME280;35729;52.090;13.162;2023-05-21T02:12:10;101288.41;;;13.58;80.20
49835;BME280;35729;52.090;13.162;2023-05-21T02:14:39;101283.19;;;13.55;80.68
49835;BME280;35729;52.090;13.162;2023-05-21T02:17:07;101279.75;;;13.52;80.70
49835;BME280;35729;52.090;13.162;2023-05-21T02:19:36;101276.28;;;13.50;80.82
49835;BME280;35729;52.090;13.162;2023-05-21T02:22:04;101278.13;;;13.47;80.87
49835;BME280;35729;52.090;13.162;2023-05-21T02:24:33;101273.00;;;13.42;81.10
49835;BME280;35729;52.090;13.162;2023-05-21T02:27:01;101277.47;;;13.39;81.07
49835;BME280;35729;52.090;13.162;2023-05-21T02:29:33;101282.81;;;13.34;81.10
49835;BME280;35729;52.090;13.162;2023-05-21T02:32:01;101275.13;;;13.25;81.42
49835;BME280;35729;52.090;13.162;2023-05-21T02:34:30;101277.78;;;13.25;81.49
49835;BME280;35729;52.090;13.162;2023-05-21T02:37:01;101275.19;;;13.22;81.60
49835;BME280;35729;52.090;13.162;2023-05-21T02:39:31;101269.13;;;13.18;81.51
49835;BME280;35729;52.090;13.162;2023-05-21T02:41:59;101271.81;;;13.16;81.86
49835;BME280;35729;52.090;13.162;2023-05-21T02:44:27;101272.78;;;13.12;81.86
49835;BME280;35729;52.090;13.162;2023-05-21T02:46:58;101268.50;;;13.08;81.76
49835;BME280;35729;52.090;13.162;2023-05-21T02:49:27;101270.31;;;13.06;81.93
49835;BME280;35729;52.090;13.162;2023-05-21T02:51:55;101267.75;;;13.03;82.11
49835;BME280;35729;52.090;13.162;2023-05-21T02:54:24;101271.34;;;12.99;81.99
49835;BME280;35729;52.090;13.162;2023-05-21T02:56:52;101266.16;;;12.96;82.37
49835;BME280;35729;52.090;13.162;2023-05-21T02:59:21;101267.13;;;12.92;82.42
49835;BME280;35729;52.090;13.162;2023-05-21T03:01:49;101268.97;;;12.88;82.48
49835;BME280;35729;52.090;13.162;2023-05-21T03:04:20;101269.00;;;12.86;82.73
49835;BME280;35729;52.090;13.162;2023-05-21T03:06:49;101268.22;;;12.81;82.64
49835;BME280;35729;52.090;13.162;2023-05-21T03:09:19;101268.34;;;12.77;83.01
49835;BME280;35729;52.090;13.162;2023-05-21T03:11:49;101265.84;;;12.70;83.07
49835;BME280;35729;52.090;13.162;2023-05-21T03:14:17;101269.34;;;12.71;83.16
49835;BME280;35729;52.090;13.162;2023-05-21T03:16:46;101261.47;;;12.69;83.30
49835;BME280;35729;52.090;13.162;2023-05-21T03:19:15;101271.16;;;12.69;83.13
49835;BME280;35729;52.090;13.162;2023-05-21T03:21:47;101268.53;;;12.69;83.49
49835;BME280;35729;52.090;13.162;2023-05-21T03:24:16;101268.53;;;12.69;83.33
49835;BME280;35729;52.090;13.162;2023-05-21T03:26:44;101272.00;;;12.69;83.51
49835;BME280;35729;52.090;13.162;2023-05-21T03:29:14;101272.91;;;12.68;83.49
49835;BME280;35729;52.090;13.162;2023-05-21T03:31:43;101268.53;;;12.69;83.74
49835;BME280;35729;52.090;13.162;2023-05-21T03:34:11;101268.53;;;12.69;83.62
49835;BME280;35729;52.090;13.162;2023-05-21T03:36:40;101265.91;;;12.69;83.72
49835;BME280;35729;52.090;13.162;2023-05-21T03:39:11;101263.25;;;12.69;84.13
49835;BME280;35729;52.090;13.162;2023-05-21T03:41:40;101258.00;;;12.67;84.11
49835;BME280;35729;52.090;13.162;2023-05-21T03:44:09;101262.34;;;12.70;84.04
49835;BME280;35729;52.090;13.162;2023-05-21T03:46:37;101261.44;;;12.71;84.26
49835;BME280;35729;52.090;13.162;2023-05-21T03:49:06;101263.19;;;12.72;84.28
49835;BME280;35729;52.090;13.162;2023-05-21T03:51:35;101264.03;;;12.74;84.37
49835;BME280;35729;52.090;13.162;2023-05-21T03:54:04;101256.09;;;12.76;84.35
49835;BME280;35729;52.090;13.162;2023-05-21T03:56:35;101257.78;;;12.78;84.64
49835;BME280;35729;52.090;13.162;2023-05-21T03:59:03;101256.84;;;12.81;84.43
49835;BME280;35729;52.090;13.162;2023-05-21T04:01:32;101256.78;;;12.84;84.58
49835;BME280;35729;52.090;13.162;2023-05-21T04:04:00;101261.97;;;12.87;84.68
49835;BME280;35729;52.090;13.162;2023-05-21T04:06:35;101260.13;;;12.91;84.70
49835;BME280;35729;52.090;13.162;2023-05-21T04:09:12;101263.56;;;12.94;84.65
49835;BME280;35729;52.090;13.162;2023-05-21T04:11:43;101261.75;;;12.96;84.59
49835;BME280;35729;52.090;13.162;2023-05-21T04:14:12;101262.50;;;13.03;84.63
49835;BME280;35729;52.090;13.162;2023-05-21T04:16:40;101263.25;;;13.07;84.66
49835;BME280;35729;52.090;13.162;2023-05-21T04:19:13;101271.94;;;13.12;84.75
49835;BME280;35729;52.090;13.162;2023-05-21T04:21:42;101274.44;;;13.16;84.76
49835;BME280;35729;52.090;13.162;2023-05-21T04:24:10;101275.19;;;13.22;84.71
49835;BME280;35729;52.090;13.162;2023-05-21T04:26:39;101278.59;;;13.27;84.76
49835;BME280;35729;52.090;13.162;2023-05-21T04:29:11;101274.06;;;13.32;84.86
49835;BME280;35729;52.090;13.162;2023-05-21T04:31:42;101277.50;;;13.35;84.95
49835;BME280;35729;52.090;13.162;2023-05-21T04:34:11;101278.28;;;13.41;84.94
49835;BME280;35729;52.090;13.162;2023-05-21T04:36:42;101273.78;;;13.46;84.87
49835;BME280;35729;52.090;13.162;2023-05-21T04:39:11;101286.78;;;13.52;84.99
49835;BME280;35729;52.090;13.162;2023-05-21T04:41:40;101292.84;;;13.56;85.07
49835;BME280;35729;52.090;13.162;2023-05-21T04:44:11;101285.69;;;13.61;85.13
49835;BME280;35729;52.090;13.162;2023-05-21T04:46:41;101286.47;;;13.64;84.93
49835;BME280;35729;52.090;13.162;2023-05-21T04:49:10;101278.50;;;13.67;85.08
49835;BME280;35729;52.090;13.162;2023-05-21T04:51:39;101283.63;;;13.74;84.99
49835;BME280;35729;52.090;13.162;2023-05-21T04:54:08;101284.38;;;13.77;85.07
49835;BME280;35729;52.090;13.162;2023-05-21T04:56:36;101285.16;;;13.81;84.92
49835;BME280;35729;52.090;13.162;2023-05-21T04:59:05;101287.72;;;13.84;85.01
49835;BME280;35729;52.090;13.162;2023-05-21T05:01:36;101283.19;;;13.89;84.97
49835;BME280;35729;52.090;13.162;2023-05-21T05:04:05;101287.53;;;13.92;85.09
49835;BME280;35729;52.090;13.162;2023-05-21T05:06:34;101283.88;;;13.96;85.24
49835;BME280;35729;52.090;13.162;2023-05-21T05:09:02;101282.94;;;13.98;85.22
49835;BME280;35729;52.090;13.162;2023-05-21T05:11:31;101278.44;;;14.02;85.14
49835;BME280;35729;52.090;13.162;2023-05-21T05:14:00;101272.22;;;14.05;84.91
49835;BME280;35729;52.090;13.162;2023-05-21T05:16:28;101273.00;;;14.08;85.21
49835;BME280;35729;52.090;13.162;2023-05-21T05:19:00;101274.69;;;14.11;84.92
49835;BME280;35729;52.090;13.162;2023-05-21T05:21:28;101277.22;;;14.14;85.22
49835;BME280;35729;52.090;13.162;2023-05-21T05:23:57;101270.09;;;14.17;84.97
49835;BME280;35729;52.090;13.162;2023-05-21T05:26:26;101273.50;;;14.21;85.27
49835;BME280;35729;52.090;13.162;2023-05-21T05:28:54;101267.28;;;14.24;85.21
49835;BME280;35729;52.090;13.162;2023-05-21T05:31:23;101260.19;;;14.26;85.21
49835;BME280;35729;52.090;13.162;2023-05-21T05:33:51;101264.53;;;14.28;85.44
49835;BME280;35729;52.090;13.162;2023-05-21T05:36:22;101267.94;;;14.32;85.17
49835;BME280;35729;52.090;13.162;2023-05-21T05:38:51;101270.47;;;14.35;85.56
49835;BME280;35729;52.090;13.162;2023-05-21T05:41:20;101265.03;;;14.41;85.20
49835;BME280;35729;52.090;13.162;2023-05-21T05:43:48;101266.63;;;14.47;85.49
49835;BME280;35729;52.090;13.162;2023-05-21T05:46:17;101267.38;;;14.50;85.41
49835;BME280;35729;52.090;13.162;2023-05-21T05:48:45;101262.81;;;14.57;85.49
49835;BME280;35729;52.090;13.162;2023-05-21T05:51:14;101266.16;;;14.62;85.46
49835;BME280;35729;52.090;13.162;2023-05-21T05:53:45;101264.22;;;14.69;85.68
49835;BME280;35729;52.090;13.162;2023-05-21T05:56:13;101267.53;;;14.76;85.55
49835;BME280;35729;52.090;13.162;2023-05-21T05:58:42;101264.66;;;14.83;85.52
49835;BME280;35729;52.090;13.162;2023-05-21T06:01:11;101261.78;;;14.91;85.39
49835;BME280;35729;52.090;13.162;2023-05-21T06:03:39;101265.91;;;15.00;85.47
49835;BME280;35729;52.090;13.162;2023-05-21T06:06:08;101255.13;;;15.06;85.25
49835;BME280;35729;52.090;13.162;2023-05-21T06:08:37;101265.41;;;15.15;85.51
49835;BME280;35729;52.090;13.162;2023-05-21T06:11:08;101258.97;;;15.24;85.25
49835;BME280;35729;52.090;13.162;2023-05-21T06:13:36;101260.38;;;15.35;85.22
49835;BME280;35729;52.090;13.162;2023-05-21T06:16:05;101260.13;;;15.42;85.03
49835;BME280;35729;52.090;13.162;2023-05-21T06:18:34;101259.72;;;15.55;84.55
49835;BME280;35729;52.090;13.162;2023-05-21T06:21:02;101257.66;;;15.63;84.21
49835;BME280;35729;52.090;13.162;2023-05-21T06:23:31;101256.38;;;15.75;84.22
49835;BME280;35729;52.090;13.162;2023-05-21T06:26:01;101253.38;;;15.86;83.79
49835;BME280;35729;52.090;13.162;2023-05-21T06:28:32;101252.09;;;15.96;83.58
49835;BME280;35729;52.090;13.162;2023-05-21T06:31:00;101249.94;;;16.07;83.22
49835;BME280;35729;52.090;13.162;2023-05-21T06:33:29;101250.41;;;16.19;82.70
49835;BME280;35729;52.090;13.162;2023-05-21T06:35:57;101249.16;;;16.29;82.45
49835;BME280;35729;52.090;13.162;2023-05-21T06:38:26;101253.06;;;16.42;81.83
49835;BME280;35729;52.090;13.162;2023-05-21T06:40:55;101248.28;;;16.52;81.33
49835;BME280;35729;52.090;13.162;2023-05-21T06:43:23;101246.94;;;16.64;80.99
49835;BME280;35729;52.090;13.162;2023-05-21T06:45:55;101246.50;;;16.75;80.55
49835;BME280;35729;52.090;13.162;2023-05-21T06:48:24;101244.31;;;16.86;80.35
49835;BME280;35729;52.090;13.162;2023-05-21T06:50:52;101242.28;;;16.93;79.73
49835;BME280;35729;52.090;13.162;2023-05-21T06:53:21;101241.78;;;17.05;79.59
49835;BME280;35729;52.090;13.162;2023-05-21T06:55:49;101250.25;;;17.15;79.41
49835;BME280;35729;52.090;13.162;2023-05-21T06:58:19;101244.63;;;17.23;79.06
49835;BME280;35729;52.090;13.162;2023-05-21T07:00:47;101246.03;;;17.32;78.63
49835;BME280;35729;52.090;13.162;2023-05-21T07:03:18;101239.47;;;17.40;78.16
49835;BME280;35729;52.090;13.162;2023-05-21T07:05:47;101237.34;;;17.49;77.63
49835;BME280;35729;52.090;13.162;2023-05-21T07:08:15;101244.03;;;17.57;77.40
49835;BME280;35729;52.090;13.162;2023-05-21T07:10:44;101242.84;;;17.65;77.07
49835;BME280;35729;52.090;13.162;2023-05-21T07:13:12;101246.97;;;17.72;76.73
49835;BME280;35729;52.090;13.162;2023-05-21T07:15:41;101237.75;;;17.81;76.50
49835;BME280;35729;52.090;13.162;2023-05-21T07:18:09;101244.34;;;17.91;76.07
49835;BME280;35729;52.090;13.162;2023-05-21T07:20:41;101228.19;;;17.97;75.91
49835;BME280;35729;52.090;13.162;2023-05-21T07:23:09;101235.72;;;18.06;75.36
49835;BME280;35729;52.090;13.162;2023-05-21T07:25:38;101230.88;;;18.16;75.31
49835;BME280;35729;52.090;13.162;2023-05-21T07:28:06;101234.91;;;18.25;75.35
49835;BME280;35729;52.090;13.162;2023-05-21T07:30:35;101229.94;;;18.36;74.55
49835;BME280;35729;52.090;13.162;2023-05-21T07:33:03;101224.13;;;18.47;74.34
49835;BME280;35729;52.090;13.162;2023-05-21T07:35:32;101228.13;;;18.56;73.89
49835;BME280;35729;52.090;13.162;2023-05-21T07:38:03;101232.06;;;18.66;73.28
49835;BME280;35729;52.090;13.162;2023-05-21T07:40:31;101221.00;;;18.76;73.55
49835;BME280;35729;52.090;13.162;2023-05-21T07:43:00;101226.66;;;18.87;73.14
49835;BME280;35729;52.090;13.162;2023-05-21T07:45:28;101224.44;;;18.97;72.33
49835;BME280;35729;52.090;13.162;2023-05-21T07:47:57;101216.84;;;19.07;72.17
49835;BME280;35729;52.090;13.162;2023-05-21T07:50:25;101220.78;;;19.17;71.51
49835;BME280;35729;52.090;13.162;2023-05-21T07:52:54;101220.31;;;19.26;71.28
49835;BME280;35729;52.090;13.162;2023-05-21T07:55:25;101214.53;;;19.35;71.28
49835;BME280;35729;52.090;13.162;2023-05-21T07:57:53;101217.50;;;19.47;70.67
49835;BME280;35729;52.090;13.162;2023-05-21T08:00:22;101218.72;;;19.57;70.50
49835;BME280;35729;52.090;13.162;2023-05-21T08:02:51;101218.28;;;19.66;70.07
49835;BME280;35729;52.090;13.162;2023-05-21T08:05:20;101217.78;;;19.76;69.33
49835;BME280;35729;52.090;13.162;2023-05-21T08:07:50;101219.97;;;19.85;68.94
49835;BME280;35729;52.090;13.162;2023-05-21T08:10:18;101222.06;;;19.96;68.78
49835;BME280;35729;52.090;13.162;2023-05-21T08:12:49;101220.72;;;20.05;67.97
49835;BME280;35729;52.090;13.162;2023-05-21T08:15:18;101221.09;;;20.14;68.06
49835;BME280;35729;52.090;13.162;2023-05-21T08:17:46;101213.44;;;20.24;67.55
49835;BME280;35729;52.090;13.162;2023-05-21T08:20:15;101211.97;;;20.34;67.51
49835;BME280;35729;52.090;13.162;2023-05-21T08:22:44;101221.09;;;20.46;66.84
49835;BME280;35729;52.090;13.162;2023-05-21T08:25:14;101216.13;;;20.56;66.71
49835;BME280;35729;52.090;13.162;2023-05-21T08:27:42;101211.09;;;20.66;65.99
49835;BME280;35729;52.090;13.162;2023-05-21T08:30:14;101210.53;;;20.77;65.21
49835;BME280;35729;52.090;13.162;2023-05-21T08:32:42;101218.88;;;20.87;64.80
49835;BME280;35729;52.090;13.162;2023-05-21T08:35:11;101213.84;;;20.96;64.38
49835;BME280;35729;52.090;13.162;2023-05-21T08:37:39;101210.56;;;21.07;64.05
49835;BME280;35729;52.090;13.162;2023-05-21T08:40:09;101217.06;;;21.18;63.75
49835;BME280;35729;52.090;13.162;2023-05-21T08:42:42;101214.63;;;21.29;63.40
49835;BME280;35729;52.090;13.162;2023-05-21T08:45:20;101210.47;;;21.39;62.99
49835;BME280;35729;52.090;13.162;2023-05-21T08:47:54;101212.50;;;21.50;62.63
49835;BME280;35729;52.090;13.162;2023-05-21T08:50:25;101208.34;;;21.60;62.05
49835;BME280;35729;52.090;13.162;2023-05-21T08:52:54;101209.50;;;21.71;62.38
49835;BME280;35729;52.090;13.162;2023-05-21T08:55:23;101210.63;;;21.81;61.65
49835;BME280;35729;52.090;13.162;2023-05-21T08:57:53;101214.47;;;21.91;61.40
49835;BME280;35729;52.090;13.162;2023-05-21T09:00:24;101207.59;;;22.02;61.43
49835;BME280;35729;52.090;13.162;2023-05-21T09:02:52;101198.88;;;22.12;60.97
49835;BME280;35729;52.090;13.162;2023-05-21T09:05:22;101201.75;;;22.24;61.06
49835;BME280;35729;52.090;13.162;2023-05-21T09:07:56;101188.88;;;22.31;60.50
49835;BME280;35729;52.090;13.162;2023-05-21T09:10:34;101196.97;;;22.43;59.55
49835;BME280;35729;52.090;13.162;2023-05-21T09:13:03;101203.53;;;22.52;59.75
49835;BME280;35729;52.090;13.162;2023-05-21T09:15:35;101197.69;;;22.60;58.83
49835;BME280;35729;52.090;13.162;2023-05-21T09:18:04;101197.19;;;22.68;58.53
49835;BME280;35729;52.090;13.162;2023-05-21T09:20:32;101199.25;;;22.77;58.43
49835;BME280;35729;52.090;13.162;2023-05-21T09:23:02;101199.50;;;22.87;57.70
49835;BME280;35729;52.090;13.162;2023-05-21T09:25:31;101196.13;;;22.98;57.35
49835;BME280;35729;52.090;13.162;2023-05-21T09:28:00;101198.94;;;23.09;57.49
49835;BME280;35729;52.090;13.162;2023-05-21T09:30:28;101198.22;;;23.20;56.95
49835;BME280;35729;52.090;13.162;2023-05-21T09:33:00;101197.50;;;23.31;56.39
49835;BME280;35729;52.090;13.162;2023-05-21T09:35:28;101195.78;;;23.42;55.92
49835;BME280;35729;52.090;13.162;2023-05-21T09:37:57;101195.03;;;23.53;55.60
49835;BME280;35729;52.090;13.162;2023-05-21T09:40:26;101186.16;;;23.66;55.09
49835;BME280;35729;52.090;13.162;2023-05-21T09:42:55;101182.59;;;23.78;54.63
49835;BME280;35729;52.090;13.162;2023-05-21T09:45:24;101188.91;;;23.90;54.72
49835;BME280;35729;52.090;13.162;2023-05-21T09:47:54;101181.00;;;24.01;54.74
49835;BME280;35729;52.090;13.162;2023-05-21T09:50:26;101176.56;;;24.13;54.42
49835;BME280;35729;52.090;13.162;2023-05-21T09:53:01;101182.75;;;24.27;53.70
49835;BME280;35729;52.090;13.162;2023-05-21T09:55:30;101174.03;;;24.36;52.81
49835;BME280;35729;52.090;13.162;2023-05-21T09:57:58;101168.75;;;24.47;52.74
49835;BME280;35729;52.090;13.162;2023-05-21T10:00:29;101172.44;;;24.58;52.32
49835;BME280;35729;52.090;13.162;2023-05-21T10:03:00;101175.97;;;24.71;51.46
49835;BME280;35729;52.090;13.162;2023-05-21T10:05:32;101175.06;;;24.83;51.09
49835;BME280;35729;52.090;13.162;2023-05-21T10:08:08;101169.72;;;24.95;50.00
49835;BME280;35729;52.090;13.162;2023-05-21T10:10:39;101171.69;;;25.04;50.32
49835;BME280;35729;52.090;13.162;2023-05-21T10:13:11;101168.19;;;25.15;49.91
49835;BME280;35729;52.090;13.162;2023-05-21T10:15:44;101167.63;;;25.23;49.16
49835;BME280;35729;52.090;13.162;2023-05-21T10:18:13;101161.03;;;25.27;48.75
49835;BME280;35729;52.090;13.162;2023-05-21T10:20:45;101162.78;;;25.39;48.28
49835;BME280;35729;52.090;13.162;2023-05-21T10:23:14;101162.06;;;25.48;47.85
49835;BME280;35729;52.090;13.162;2023-05-21T10:25:43;101162.19;;;25.58;47.58
49835;BME280;35729;52.090;13.162;2023-05-21T10:28:15;101149.88;;;25.67;46.32
49835;BME280;35729;52.090;13.162;2023-05-21T10:30:45;101143.13;;;25.84;46.28
49835;BME280;35729;52.090;13.162;2023-05-21T10:33:14;101139.94;;;25.90;45.67
49835;BME280;35729;52.090;13.162;2023-05-21T10:35:46;101149.84;;;26.01;45.47
49835;BME280;35729;52.090;13.162;2023-05-21T10:38:18;101144.72;;;26.09;45.71
49835;BME280;35729;52.090;13.162;2023-05-21T10:40:48;101149.59;;;26.15;45.33
49835;BME280;35729;52.090;13.162;2023-05-21T10:43:27;101140.56;;;26.16;44.15
49835;BME280;35729;52.090;13.162;2023-05-21T10:46:20;101141.41;;;26.17;44.43
49835;BME280;35729;52.090;13.162;2023-05-21T10:48:59;101139.59;;;26.17;44.07
49835;BME280;35729;52.090;13.162;2023-05-21T10:51:42;101134.22;;;26.17;43.08
49835;BME280;35729;52.090;13.162;2023-05-21T10:54:31;101131.53;;;26.17;43.57
49835;BME280;35729;52.090;13.162;2023-05-21T10:57:13;101126.75;;;26.21;43.43
49835;BME280;35729;52.090;13.162;2023-05-21T10:59:47;101118.28;;;26.26;43.35
49835;BME280;35729;52.090;13.162;2023-05-21T11:02:18;101125.47;;;26.37;42.86
49835;BME280;35729;52.090;13.162;2023-05-21T11:04:47;101121.31;;;26.44;42.50
49835;BME280;35729;52.090;13.162;2023-05-21T11:07:22;101125.03;;;26.53;42.35
49835;BME280;35729;52.090;13.162;2023-05-21T11:09:51;101124.28;;;26.62;42.49
49835;BME280;35729;52.090;13.162;2023-05-21T11:12:20;101120.81;;;26.71;42.36
49835;BME280;35729;52.090;13.162;2023-05-21T11:14:55;101120.78;;;26.82;41.35
49835;BME280;35729;52.090;13.162;2023-05-21T11:17:37;101116.06;;;26.96;40.47
49835;BME280;35729;52.090;13.162;2023-05-21T11:20:10;101118.41;;;27.10;41.28
49835;BME280;35729;52.090;13.162;2023-05-21T11:22:44;101113.53;;;27.25;40.71
49835;BME280;35729;52.090;13.162;2023-05-21T11:25:13;101118.72;;;27.38;40.66
49835;BME280;35729;52.090;13.162;2023-05-21T11:27:41;101113.00;;;27.53;40.34
49835;BME280;35729;52.090;13.162;2023-05-21T11:30:14;101113.75;;;27.64;39.34
49835;BME280;35729;52.090;13.162;2023-05-21T11:35:56;101107.06;;;28.00;38.29
49835;BME280;35729;52.090;13.162;2023-05-21T11:38:30;101111.91;;;28.16;37.60
49835;BME280;35729;52.090;13.162;2023-05-21T11:41:00;101100.75;;;28.30;37.32
49835;BME280;35729;52.090;13.162;2023-05-21T11:43:30;101101.31;;;28.43;37.52
49835;BME280;35729;52.090;13.162;2023-05-21T11:45:58;101102.28;;;28.52;36.39
49835;BME280;35729;52.090;13.162;2023-05-21T11:48:29;101108.00;;;28.59;35.91
49835;BME280;35729;52.090;13.162;2023-05-21T11:50:58;101111.09;;;28.64;35.47
49835;BME280;35729;52.090;13.162;2023-05-21T11:53:31;101118.69;;;28.70;35.24
49835;BME280;35729;52.090;13.162;2023-05-21T11:56:04;101112.69;;;28.76;35.83
49835;BME280;35729;52.090;13.162;2023-05-21T11:58:34;101105.28;;;28.88;35.12
49835;BME280;35729;52.090;13.162;2023-05-21T12:01:02;101107.00;;;28.99;34.98
49835;BME280;35729;52.090;13.162;2023-05-21T12:03:33;101098.00;;;29.08;34.27
49835;BME280;35729;52.090;13.162;2023-05-21T12:06:03;101108.78;;;29.18;33.31
49835;BME280;35729;52.090;13.162;2023-05-21T12:08:36;101112.91;;;29.32;33.42
49835;BME280;35729;52.090;13.162;2023-05-21T12:11:06;101108.56;;;29.49;33.82
49835;BME280;35729;52.090;13.162;2023-05-21T12:13:35;101104.78;;;29.70;33.43
49835;BME280;35729;52.090;13.162;2023-05-21T12:16:05;101094.72;;;29.90;33.20
49835;BME280;35729;52.090;13.162;2023-05-21T12:18:35;101101.06;;;29.99;32.75
49835;BME280;35729;52.090;13.162;2023-05-21T12:21:03;101098.47;;;30.07;32.62
49835;BME280;35729;52.090;13.162;2023-05-21T12:23:32;101101.38;;;30.14;32.39
49835;BME280;35729;52.090;13.162;2023-05-21T12:26:03;101094.22;;;30.22;32.16
49835;BME280;35729;52.090;13.162;2023-05-21T12:28:32;101090.72;;;30.30;32.41
49835;BME280;35729;52.090;13.162;2023-05-21T12:31:01;101092.38;;;30.41;31.82
49835;BME280;35729;52.090;13.162;2023-05-21T12:33:33;101082.00;;;30.54;31.80
49835;BME280;35729;52.090;13.162;2023-05-21T12:36:01;101087.88;;;30.68;31.46
49835;BME280;35729;52.090;13.162;2023-05-21T12:38:30;101085.28;;;30.84;31.12
49835;BME280;35729;52.090;13.162;2023-05-21T12:41:05;101069.94;;;30.93;29.85
49835;BME280;35729;52.090;13.162;2023-05-21T12:43:33;101082.94;;;31.08;30.43
49835;BME280;35729;52.090;13.162;2023-05-21T12:46:02;101088.41;;;31.16;30.32
49835;BME280;35729;52.090;13.162;2023-05-21T12:48:30;101077.13;;;31.29;30.32
49835;BME280;35729;52.090;13.162;2023-05-21T12:50:59;101080.78;;;31.46;29.75
49835;BME280;35729;52.090;13.162;2023-05-21T12:53:35;101083.56;;;31.62;28.32
49835;BME280;35729;52.090;13.162;2023-05-21T12:56:11;101071.78;;;31.80;28.59
49835;BME280;35729;52.090;13.162;2023-05-21T12:58:41;101078.06;;;31.89;29.00